LEBZ/BJZ METAR and TAF weather

Enter ICAO airport designator
Station Type Date Time Source
LEBZ METAR 2018/12/15 20:00 UTC NOAA

LEBZ 152000Z 17007KT 9999 OVC032 13/09 Q1027


Station Type Date Time Source
LEBZ Decoded METAR 2018/12/15 20:00 UTC NOAA

Badajoz / Talavera La Real, Spain (LEBZ) 38-53N 006-49W 192M
Dec 15, 2018 - 03:00 PM EST / 2018.12.15 2000 UTC
Wind: from the S (170 degrees) at 8 MPH (7 KT):0
Visibility: greater than 7 mile(s):0
Sky conditions: overcast
Temperature: 55 F (13 C)
Dew Point: 48 F (9 C)
Relative Humidity: 76%
Pressure (altimeter): 30.33 in. Hg (1027 hPa)
ob: LEBZ 152000Z 17007KT 9999 OVC032 13/09 Q1027
cycle: 20

Station Type Date Time Source
LEBZ TAF 2018/12/15 18:27 UTC NOAA

TAF LEBZ 151700Z 1518/1618 22006KT 9999 SCT015 BKN025 TX14/1615Z TN06/1607Z
TEMPO 1603/1612 4000 RA BR BKN010


Example: see airport list